createdAt,value
2016-12-31T16:07:57.870Z,38
2016-12-31T16:08:14.782Z,41
2016-12-31T16:08:31.706Z,39
2016-12-31T16:08:48.611Z,38
2016-12-31T16:09:05.510Z,38
2016-12-31T16:09:22.435Z,38
2016-12-31T16:09:39.333Z,39
2016-12-31T16:09:56.235Z,38
2016-12-31T16:10:13.164Z,38
2016-12-31T16:10:30.060Z,38
2016-12-31T16:10:46.963Z,39
2016-12-31T16:11:03.900Z,39
2016-12-31T16:11:20.795Z,40
2016-12-31T16:11:37.708Z,40
2016-12-31T16:11:54.628Z,39
2016-12-31T16:12:11.555Z,40
2016-12-31T16:12:28.465Z,39
2016-12-31T16:12:45.378Z,39
2016-12-31T16:13:02.355Z,41
2016-12-31T16:13:19.322Z,39
2016-12-31T16:13:36.242Z,40
2016-12-31T16:13:53.143Z,38
2016-12-31T16:14:10.079Z,40
2016-12-31T16:14:26.984Z,41
2016-12-31T16:14:43.879Z,39
2016-12-31T16:15:00.780Z,40
2016-12-31T16:15:17.685Z,41
2016-12-31T16:15:34.595Z,39
2016-12-31T16:15:51.497Z,40
2016-12-31T16:16:08.441Z,39
2016-12-31T16:16:25.352Z,39
2016-12-31T16:16:42.269Z,39
2016-12-31T16:16:58.861Z,39
2016-12-31T16:17:15.763Z,39
2016-12-31T16:17:32.690Z,41
2016-12-31T16:17:49.649Z,39
2016-12-31T16:18:06.597Z,39
2016-12-31T16:18:23.497Z,40
2016-12-31T16:18:40.395Z,41
2016-12-31T16:18:57.320Z,38
2016-12-31T16:19:14.225Z,38
2016-12-31T16:19:31.127Z,39
2016-12-31T16:19:48.024Z,38
2016-12-31T16:20:04.976Z,41
2016-12-31T16:20:21.581Z,41
2016-12-31T16:20:38.483Z,39
2016-12-31T16:20:55.380Z,39
2016-12-31T16:21:12.282Z,39
2016-12-31T16:21:29.193Z,39
2016-12-31T16:21:46.109Z,38
2016-12-31T16:22:03.020Z,39
2016-12-31T16:22:19.932Z,38
2016-12-31T16:22:36.858Z,39
2016-12-31T16:22:53.763Z,39
2016-12-31T16:23:10.676Z,41
2016-12-31T16:23:27.594Z,39
2016-12-31T16:23:44.509Z,38
2016-12-31T16:24:01.421Z,41
2016-12-31T16:24:18.323Z,40
2016-12-31T16:24:35.234Z,39
2016-12-31T16:24:52.178Z,40
2016-12-31T16:25:09.075Z,39
2016-12-31T16:25:25.985Z,39
2016-12-31T16:25:42.943Z,40
2016-12-31T16:25:59.838Z,40
2016-12-31T16:26:16.753Z,41
2016-12-31T16:26:33.691Z,40
2016-12-31T16:26:50.596Z,39
2016-12-31T16:27:07.511Z,41
2016-12-31T16:27:24.421Z,40
2016-12-31T16:27:41.359Z,39
2016-12-31T16:27:58.263Z,39
2016-12-31T16:28:15.180Z,40
2016-12-31T16:28:32.082Z,39
2016-12-31T16:28:48.980Z,40
2016-12-31T16:29:05.885Z,41
2016-12-31T16:29:22.783Z,38
2016-12-31T16:29:39.673Z,41
2016-12-31T16:29:56.573Z,39
2016-12-31T16:30:13.535Z,39
2016-12-31T16:30:30.441Z,38
2016-12-31T16:30:47.354Z,40
2016-12-31T16:31:04.257Z,39
2016-12-31T16:31:21.165Z,39
2016-12-31T16:31:38.100Z,39
2016-12-31T16:31:55.001Z,41
2016-12-31T16:32:11.938Z,41
2016-12-31T16:32:28.836Z,38
2016-12-31T16:32:45.735Z,40
2016-12-31T16:33:02.638Z,42
2016-12-31T16:33:19.541Z,38
2016-12-31T16:33:36.442Z,38
2016-12-31T16:33:53.338Z,38
2016-12-31T16:34:10.254Z,41
2016-12-31T16:34:27.164Z,39
2016-12-31T16:34:44.062Z,39
2016-12-31T16:35:00.961Z,41
2016-12-31T16:35:17.865Z,41
2016-12-31T16:35:34.764Z,40
2016-12-31T16:35:51.667Z,41
2016-12-31T16:36:08.566Z,41
2016-12-31T16:36:25.462Z,40
2016-12-31T16:36:42.369Z,41
2016-12-31T16:36:59.286Z,39
2016-12-31T16:37:16.184Z,40
2016-12-31T16:37:33.084Z,41
2016-12-31T16:37:49.989Z,38
2016-12-31T16:38:06.905Z,40
2016-12-31T16:38:23.802Z,39
2016-12-31T16:38:40.727Z,40
2016-12-31T16:38:57.639Z,38
2016-12-31T16:39:14.562Z,41
2016-12-31T16:39:31.457Z,40
2016-12-31T16:39:48.364Z,41
2016-12-31T16:40:05.264Z,41
2016-12-31T16:40:22.178Z,40
2016-12-31T16:40:39.106Z,41
2016-12-31T16:40:56.027Z,40
2016-12-31T16:41:12.943Z,39
2016-12-31T16:41:29.867Z,40
2016-12-31T16:41:46.764Z,39
2016-12-31T16:42:03.661Z,40
2016-12-31T16:42:20.563Z,38
2016-12-31T16:42:37.492Z,40
2016-12-31T16:42:54.392Z,40
2016-12-31T16:43:11.297Z,41
2016-12-31T16:43:28.195Z,38
2016-12-31T16:43:45.108Z,40
2016-12-31T16:44:02.005Z,39
2016-12-31T16:44:18.917Z,40
2016-12-31T16:44:35.822Z,40
2016-12-31T16:44:52.824Z,39
2016-12-31T16:45:09.732Z,39
2016-12-31T16:45:26.635Z,40
2016-12-31T16:45:43.546Z,41
2016-12-31T16:46:00.447Z,39
2016-12-31T16:46:17.349Z,38
2016-12-31T16:46:34.249Z,38
2016-12-31T16:46:51.167Z,38
2016-12-31T16:47:08.072Z,38
2016-12-31T16:47:24.982Z,40
2016-12-31T16:47:41.878Z,40
2016-12-31T16:47:58.778Z,39
2016-12-31T16:48:15.688Z,40
2016-12-31T16:48:32.583Z,40
2016-12-31T16:48:49.483Z,38
2016-12-31T16:49:06.380Z,38
2016-12-31T16:49:23.282Z,39
2016-12-31T16:49:40.180Z,38
2016-12-31T16:49:57.081Z,38
2016-12-31T16:50:13.988Z,39
2016-12-31T16:50:30.888Z,38
2016-12-31T16:50:47.783Z,39
2016-12-31T16:51:04.682Z,40
2016-12-31T16:51:21.597Z,39
2016-12-31T16:51:38.507Z,39
2016-12-31T16:51:55.409Z,39
2016-12-31T16:52:12.321Z,38
2016-12-31T16:52:29.222Z,40
2016-12-31T16:52:46.124Z,39
2016-12-31T16:53:03.021Z,41
2016-12-31T16:53:19.923Z,40
2016-12-31T16:53:36.830Z,40
2016-12-31T16:53:53.748Z,40
2016-12-31T16:54:10.660Z,39
2016-12-31T16:54:27.555Z,39
2016-12-31T16:54:44.462Z,40
2016-12-31T16:55:01.404Z,42
2016-12-31T16:55:18.303Z,41
2016-12-31T16:55:35.205Z,38
2016-12-31T16:55:52.110Z,40
2016-12-31T16:56:09.012Z,36
2016-12-31T16:58:37.096Z,1
2016-12-31T16:58:54.021Z,0
2016-12-31T16:59:10.959Z,2
2016-12-31T16:59:27.878Z,0
2016-12-31T16:59:44.815Z,0
2016-12-31T17:00:01.733Z,0
2016-12-31T17:00:18.627Z,0
2016-12-31T17:00:35.552Z,0
2016-12-31T17:00:52.476Z,0
2016-12-31T17:01:09.389Z,0
2016-12-31T17:01:26.302Z,0
2016-12-31T17:01:43.283Z,0
2016-12-31T17:02:00.202Z,0
2016-12-31T17:02:17.113Z,0
2016-12-31T17:02:34.028Z,0
2016-12-31T17:02:50.971Z,0
2016-12-31T17:03:07.884Z,0
2016-12-31T17:03:24.801Z,0
2016-12-31T17:03:41.731Z,0
2016-12-31T17:03:58.646Z,0
2016-12-31T17:04:15.550Z,0
2016-12-31T17:04:32.471Z,0
2016-12-31T17:04:49.402Z,0
2016-12-31T17:05:06.369Z,0
2016-12-31T17:05:23.290Z,0
2016-12-31T17:05:40.193Z,0
2016-12-31T17:05:57.108Z,0
2016-12-31T17:06:14.006Z,0
2016-12-31T17:06:30.920Z,0
2016-12-31T17:06:47.847Z,0
2016-12-31T17:07:04.749Z,0
2016-12-31T17:07:21.338Z,0
2016-12-31T17:07:37.938Z,0
2016-12-31T17:07:54.853Z,0
2016-12-31T17:08:11.770Z,0
2016-12-31T17:08:28.696Z,0
2016-12-31T17:08:45.627Z,0
2016-12-31T17:09:02.539Z,0
2016-12-31T17:09:19.462Z,0
2016-12-31T17:09:36.383Z,0
2016-12-31T17:09:53.447Z,0
2016-12-31T17:10:10.371Z,0
2016-12-31T17:10:27.300Z,0
2016-12-31T17:10:44.218Z,0
2016-12-31T17:11:01.129Z,0
2016-12-31T17:11:18.028Z,0
2016-12-31T17:11:34.950Z,0
2016-12-31T17:11:51.873Z,0
2016-12-31T17:12:08.783Z,0
2016-12-31T17:12:25.702Z,0
2016-12-31T17:12:42.620Z,0
2016-12-31T17:12:59.529Z,0
2016-12-31T17:13:16.677Z,0
2016-12-31T17:13:33.594Z,0
2016-12-31T17:13:50.535Z,0
2016-12-31T17:14:07.423Z,0
2016-12-31T17:14:24.350Z,0
2016-12-31T17:14:41.260Z,0
2016-12-31T17:14:58.184Z,0
2016-12-31T17:15:15.097Z,0
2016-12-31T17:15:32.019Z,0
2016-12-31T17:15:48.957Z,0
2016-12-31T17:16:05.907Z,0
2016-12-31T17:16:22.821Z,0
2016-12-31T17:16:39.732Z,0
2016-12-31T17:16:56.643Z,0
2016-12-31T17:17:13.705Z,0
2016-12-31T17:17:30.625Z,0
2016-12-31T17:17:47.533Z,0
2016-12-31T17:18:04.439Z,0
2016-12-31T17:18:21.357Z,0
2016-12-31T17:18:38.275Z,0
2016-12-31T17:18:55.208Z,0
2016-12-31T17:19:12.123Z,0
2016-12-31T17:19:29.027Z,0
2016-12-31T17:19:45.945Z,0
2016-12-31T17:20:02.870Z,0
2016-12-31T17:20:19.782Z,0
2016-12-31T17:20:36.683Z,0
2016-12-31T17:20:53.606Z,0
2016-12-31T17:21:10.510Z,0
2016-12-31T17:21:27.424Z,0
2016-12-31T17:21:44.355Z,0
2016-12-31T17:22:01.273Z,0
2016-12-31T17:22:18.192Z,0
2016-12-31T17:22:35.104Z,0
2016-12-31T17:22:52.035Z,0
2016-12-31T17:23:08.938Z,0
2016-12-31T17:23:25.849Z,0
2016-12-31T17:23:42.451Z,0
2016-12-31T17:23:59.369Z,0
2016-12-31T17:24:16.286Z,0
2016-12-31T17:24:33.190Z,0
2016-12-31T17:24:50.098Z,0
2016-12-31T17:25:07.009Z,0
2016-12-31T17:25:23.932Z,0
2016-12-31T17:25:40.844Z,0
2016-12-31T17:25:57.759Z,0
2016-12-31T17:26:14.667Z,0
2016-12-31T17:26:31.604Z,0
2016-12-31T17:26:48.504Z,0
2016-12-31T17:27:05.405Z,0
2016-12-31T17:27:22.316Z,0
2016-12-31T17:27:39.442Z,0
2016-12-31T17:27:56.345Z,0
2016-12-31T17:28:13.257Z,0
2016-12-31T17:28:30.342Z,0
2016-12-31T17:28:47.273Z,0
2016-12-31T17:29:04.188Z,0
2016-12-31T17:29:21.103Z,0
2016-12-31T17:29:38.020Z,0
2016-12-31T17:29:54.928Z,0
2016-12-31T17:30:11.521Z,0
2016-12-31T17:30:28.437Z,0
2016-12-31T17:30:45.358Z,0
2016-12-31T17:31:24.965Z,0
2016-12-31T17:31:41.876Z,0
2016-12-31T17:31:58.821Z,0
2016-12-31T17:32:15.751Z,0
2016-12-31T17:32:32.866Z,0
2016-12-31T17:32:49.833Z,0
2016-12-31T17:33:06.747Z,0
2016-12-31T17:33:23.671Z,0
2016-12-31T17:33:40.579Z,0
2016-12-31T17:33:57.495Z,0
2016-12-31T17:34:14.406Z,0
2016-12-31T17:34:31.341Z,0
2016-12-31T17:34:48.256Z,0
2016-12-31T17:35:05.173Z,0
2016-12-31T17:35:22.089Z,0
2016-12-31T17:35:38.998Z,0
2016-12-31T17:35:55.920Z,0
2016-12-31T17:36:12.523Z,0
2016-12-31T17:36:29.437Z,0
2016-12-31T17:36:46.355Z,0
2016-12-31T17:37:03.278Z,0
2016-12-31T17:37:20.184Z,0
2016-12-31T17:37:37.101Z,0
2016-12-31T17:37:54.022Z,0
2016-12-31T17:38:10.948Z,0
2016-12-31T17:38:27.851Z,0
2016-12-31T17:38:44.765Z,0
2016-12-31T17:39:01.679Z,0
2016-12-31T17:39:18.589Z,36
2016-12-31T17:39:35.503Z,0
2016-12-31T17:39:52.451Z,0
2016-12-31T17:40:09.360Z,0
2016-12-31T17:40:26.276Z,0
2016-12-31T17:40:43.183Z,0
2016-12-31T17:40:59.792Z,0
2016-12-31T17:41:16.712Z,0
2016-12-31T17:41:33.640Z,0
2016-12-31T17:41:50.549Z,0
2016-12-31T17:42:07.461Z,0
2016-12-31T17:42:24.392Z,0
2016-12-31T17:42:41.316Z,0
2016-12-31T17:42:58.227Z,0
2016-12-31T17:43:15.148Z,0
2016-12-31T17:43:32.072Z,0
2016-12-31T17:43:49.001Z,0
2016-12-31T17:44:05.925Z,0
2016-12-31T17:44:22.860Z,0
2016-12-31T17:44:39.770Z,0
2016-12-31T17:44:56.701Z,0
2016-12-31T17:45:13.598Z,0
2016-12-31T17:45:30.502Z,0
2016-12-31T17:45:47.442Z,0
2016-12-31T17:46:04.355Z,0
2016-12-31T17:46:21.280Z,0
2016-12-31T17:46:38.198Z,0
2016-12-31T17:46:55.132Z,0
2016-12-31T17:47:12.055Z,0
2016-12-31T17:47:28.963Z,0
2016-12-31T17:47:45.874Z,0
2016-12-31T17:48:02.793Z,0
2016-12-31T17:48:19.711Z,0
2016-12-31T17:48:36.849Z,0
2016-12-31T17:48:53.763Z,0
2016-12-31T17:49:10.673Z,0
2016-12-31T17:49:27.639Z,0
2016-12-31T17:49:44.949Z,0
2016-12-31T17:50:02.027Z,0
2016-12-31T17:50:18.980Z,0
2016-12-31T17:50:35.881Z,0
2016-12-31T17:50:52.808Z,0
2016-12-31T17:51:09.745Z,0
2016-12-31T17:51:26.671Z,0
2016-12-31T17:51:43.646Z,0
2016-12-31T17:52:00.550Z,0
2016-12-31T17:52:17.456Z,0
2016-12-31T17:52:34.359Z,0
2016-12-31T17:52:51.286Z,0
2016-12-31T17:53:08.206Z,0
2016-12-31T17:53:25.104Z,0
2016-12-31T17:53:42.025Z,0
2016-12-31T17:53:58.925Z,0
2016-12-31T17:54:15.840Z,0
2016-12-31T17:54:32.752Z,0
2016-12-31T17:54:49.669Z,0
2016-12-31T17:55:06.584Z,0
2016-12-31T17:55:23.490Z,0
2016-12-31T17:55:40.400Z,0
2016-12-31T17:55:57.396Z,0
2016-12-31T17:56:14.306Z,0
2016-12-31T17:56:30.906Z,0
2016-12-31T17:56:47.826Z,0
2016-12-31T17:57:04.803Z,0
2016-12-31T17:57:21.735Z,0
2016-12-31T17:57:38.343Z,0
2016-12-31T17:57:54.960Z,0
2016-12-31T17:58:11.879Z,0
2016-12-31T17:58:28.805Z,0
2016-12-31T17:58:45.720Z,0
2016-12-31T17:59:02.625Z,0
2016-12-31T17:59:19.535Z,0
2016-12-31T17:59:36.454Z,0
2016-12-31T17:59:53.374Z,0
2016-12-31T18:00:09.963Z,0
2016-12-31T18:00:26.877Z,0
2016-12-31T18:00:43.802Z,0
2016-12-31T18:01:00.706Z,0
2016-12-31T18:01:17.627Z,0
2016-12-31T18:01:34.553Z,0
2016-12-31T18:01:51.502Z,0
2016-12-31T18:02:08.421Z,0
2016-12-31T18:02:25.333Z,0
2016-12-31T18:02:42.309Z,0
2016-12-31T18:02:59.228Z,0
2016-12-31T18:03:16.192Z,0
2016-12-31T18:03:33.103Z,0
2016-12-31T18:03:50.014Z,0
2016-12-31T18:04:06.935Z,0
2016-12-31T18:04:23.854Z,0
2016-12-31T18:04:40.770Z,0
2016-12-31T18:04:57.685Z,0
2016-12-31T18:05:14.592Z,0
2016-12-31T18:05:31.492Z,0
2016-12-31T18:05:48.421Z,0
2016-12-31T18:06:05.332Z,0
2016-12-31T18:06:22.252Z,0
2016-12-31T18:06:38.847Z,0
2016-12-31T18:06:55.828Z,0
2016-12-31T18:07:12.744Z,0
2016-12-31T18:07:29.662Z,0
2016-12-31T18:07:46.647Z,0
2016-12-31T18:08:03.557Z,0
2016-12-31T18:08:20.467Z,0
2016-12-31T18:08:37.381Z,0
2016-12-31T18:08:54.297Z,0
2016-12-31T18:09:11.196Z,0
2016-12-31T18:09:28.103Z,0
2016-12-31T18:09:45.022Z,0
2016-12-31T18:10:01.933Z,0
2016-12-31T18:10:18.871Z,0
2016-12-31T18:10:35.782Z,0
2016-12-31T18:10:52.704Z,0
2016-12-31T18:11:09.615Z,0
2016-12-31T18:11:26.525Z,0
2016-12-31T18:11:43.442Z,0
2016-12-31T18:12:00.356Z,0
2016-12-31T18:12:17.261Z,0
2016-12-31T18:12:34.168Z,0
2016-12-31T18:12:51.080Z,0
2016-12-31T18:13:07.990Z,0
2016-12-31T18:13:24.907Z,0
2016-12-31T18:13:41.494Z,0
2016-12-31T18:13:58.416Z,0
2016-12-31T18:14:15.338Z,0
2016-12-31T18:14:32.241Z,0
2016-12-31T18:14:49.151Z,0
2016-12-31T18:15:06.073Z,0
2016-12-31T18:15:22.998Z,0
2016-12-31T18:15:39.927Z,0
2016-12-31T18:15:56.835Z,0
2016-12-31T18:16:13.837Z,0
2016-12-31T18:16:30.764Z,0
2016-12-31T18:16:47.673Z,0
2016-12-31T18:17:04.675Z,0
2016-12-31T18:17:21.594Z,0
2016-12-31T18:17:38.503Z,0
2016-12-31T18:17:55.434Z,0
2016-12-31T18:18:12.377Z,0
2016-12-31T18:18:29.286Z,0
2016-12-31T18:18:46.202Z,0
2016-12-31T18:19:03.115Z,0
2016-12-31T18:19:20.029Z,0
2016-12-31T18:19:36.972Z,0
2016-12-31T18:19:54.067Z,0
2016-12-31T18:20:11.046Z,0
2016-12-31T18:20:27.961Z,0
2016-12-31T18:20:44.874Z,0
2016-12-31T18:21:01.786Z,0
2016-12-31T18:21:18.705Z,0
2016-12-31T18:21:35.609Z,0
2016-12-31T18:21:52.530Z,0
2016-12-31T18:22:09.447Z,0
2016-12-31T18:22:26.043Z,0
2016-12-31T18:22:42.967Z,0
2016-12-31T18:22:59.866Z,0
2016-12-31T18:23:16.781Z,0
2016-12-31T18:23:33.704Z,0
2016-12-31T18:23:50.619Z,0
2016-12-31T18:24:07.223Z,0
2016-12-31T18:24:24.138Z,0
2016-12-31T18:24:41.054Z,0
2016-12-31T18:24:57.957Z,0
2016-12-31T18:25:14.873Z,0
2016-12-31T18:25:31.833Z,0
2016-12-31T18:25:48.750Z,0
2016-12-31T18:26:05.790Z,0
2016-12-31T18:26:22.706Z,0
2016-12-31T18:26:39.622Z,0
2016-12-31T18:26:56.534Z,0
2016-12-31T18:27:13.463Z,0
2016-12-31T18:27:30.369Z,0
2016-12-31T18:27:47.275Z,0
2016-12-31T18:28:04.246Z,0
2016-12-31T18:28:21.157Z,0
2016-12-31T18:28:38.074Z,0
2016-12-31T18:28:54.990Z,0
2016-12-31T18:29:11.906Z,0
2016-12-31T18:29:28.824Z,0
2016-12-31T18:29:45.746Z,0
2016-12-31T18:30:02.684Z,0
2016-12-31T18:30:19.590Z,0
2016-12-31T18:30:36.508Z,0
2016-12-31T18:30:53.425Z,0
2016-12-31T18:31:10.333Z,0
2016-12-31T18:31:27.244Z,0
2016-12-31T18:31:44.168Z,0
2016-12-31T18:32:01.129Z,0
2016-12-31T18:32:18.037Z,0
2016-12-31T18:32:34.953Z,0
2016-12-31T18:32:51.864Z,0
2016-12-31T18:33:08.456Z,0
2016-12-31T18:33:25.365Z,0
2016-12-31T18:33:42.288Z,0
2016-12-31T18:33:59.204Z,0
2016-12-31T18:34:16.118Z,0
2016-12-31T18:34:33.033Z,0
2016-12-31T18:34:49.940Z,0
2016-12-31T18:35:06.848Z,0
2016-12-31T18:35:23.768Z,0
2016-12-31T18:35:40.677Z,0
2016-12-31T18:35:57.594Z,0
2016-12-31T18:36:14.186Z,0
2016-12-31T18:36:31.103Z,0
2016-12-31T18:36:48.011Z,0
2016-12-31T18:37:04.928Z,0
2016-12-31T18:37:21.835Z,0
2016-12-31T18:37:38.745Z,0
2016-12-31T18:37:55.659Z,0
2016-12-31T18:38:12.571Z,0
2016-12-31T18:38:29.476Z,0
2016-12-31T18:38:46.393Z,0
2016-12-31T18:39:03.311Z,0
2016-12-31T18:39:20.216Z,0
2016-12-31T18:39:37.165Z,0
2016-12-31T18:39:54.073Z,0
2016-12-31T18:40:10.983Z,0
2016-12-31T18:40:27.894Z,0
2016-12-31T18:40:44.823Z,0
2016-12-31T18:41:01.740Z,0
2016-12-31T18:41:18.651Z,0
2016-12-31T18:41:35.565Z,0
2016-12-31T18:41:52.526Z,0
2016-12-31T18:42:09.443Z,0
2016-12-31T18:42:26.353Z,0
2016-12-31T18:42:43.263Z,0
2016-12-31T18:42:59.868Z,0
2016-12-31T18:43:16.830Z,0
2016-12-31T18:43:33.745Z,0
2016-12-31T18:43:50.657Z,0
2016-12-31T18:44:07.577Z,0
2016-12-31T18:44:24.482Z,0
2016-12-31T18:44:41.410Z,0
2016-12-31T18:44:58.363Z,0
2016-12-31T18:45:15.263Z,0
2016-12-31T18:45:32.231Z,0
2016-12-31T18:45:49.163Z,0
2016-12-31T18:46:06.089Z,0
2016-12-31T18:46:22.996Z,0
2016-12-31T18:46:39.928Z,0
2016-12-31T18:46:56.848Z,0
2016-12-31T18:47:13.763Z,0
2016-12-31T18:47:30.681Z,0
2016-12-31T18:47:47.586Z,0
2016-12-31T18:48:04.524Z,0
2016-12-31T18:48:21.417Z,0
2016-12-31T18:48:38.323Z,0
2016-12-31T18:48:55.246Z,0
2016-12-31T18:49:12.159Z,0
2016-12-31T18:49:29.083Z,0
2016-12-31T18:49:45.989Z,0
2016-12-31T18:50:02.908Z,0
2016-12-31T18:50:19.816Z,0
2016-12-31T18:50:36.734Z,0
2016-12-31T18:50:53.656Z,0
2016-12-31T18:51:10.560Z,0
2016-12-31T18:51:27.160Z,0
2016-12-31T18:51:44.071Z,0
2016-12-31T18:52:01.043Z,0
2016-12-31T18:52:17.912Z,0
2016-12-31T18:52:34.823Z,0
2016-12-31T18:52:51.745Z,0
2016-12-31T18:53:08.661Z,0
2016-12-31T18:53:25.581Z,0
2016-12-31T18:53:42.498Z,0
2016-12-31T18:53:59.409Z,0
2016-12-31T18:54:16.317Z,0
2016-12-31T18:54:33.233Z,0
2016-12-31T18:54:50.172Z,0
2016-12-31T18:55:07.073Z,0
2016-12-31T18:55:23.990Z,0
2016-12-31T18:55:40.908Z,0
2016-12-31T18:55:57.814Z,0
2016-12-31T18:56:14.740Z,0
2016-12-31T18:56:31.660Z,0
2016-12-31T18:56:48.591Z,0
2016-12-31T18:57:05.521Z,0
2016-12-31T18:57:22.425Z,0
2016-12-31T18:57:39.336Z,0
2016-12-31T18:57:56.260Z,0
2016-12-31T18:58:13.177Z,0
2016-12-31T18:58:30.090Z,0
2016-12-31T18:58:47.058Z,0
2016-12-31T18:59:03.974Z,0
2016-12-31T18:59:20.900Z,0
2016-12-31T18:59:37.831Z,0
2016-12-31T18:59:54.745Z,0
2016-12-31T19:00:11.655Z,0
2016-12-31T19:00:28.569Z,0
2016-12-31T19:00:45.475Z,0
2016-12-31T19:01:02.389Z,0
2016-12-31T19:01:19.311Z,0
2016-12-31T19:01:36.222Z,0
2016-12-31T19:01:53.126Z,0
2016-12-31T19:02:10.031Z,0
2016-12-31T19:02:26.953Z,0
2016-12-31T19:02:43.887Z,0
2016-12-31T19:03:00.802Z,0
2016-12-31T19:03:17.738Z,0
2016-12-31T19:03:34.645Z,0
2016-12-31T19:03:51.572Z,0
2016-12-31T19:04:08.483Z,0
2016-12-31T19:04:25.461Z,0
2016-12-31T19:04:42.372Z,0
2016-12-31T19:04:59.037Z,0
2016-12-31T19:05:15.956Z,0
2016-12-31T19:05:32.899Z,0
2016-12-31T19:05:49.959Z,0
2016-12-31T19:06:06.790Z,0
2016-12-31T19:06:23.731Z,0
2016-12-31T19:06:40.649Z,0
2016-12-31T19:06:57.552Z,0
2016-12-31T19:07:14.466Z,0
2016-12-31T19:07:31.468Z,0
2016-12-31T19:07:48.388Z,0
2016-12-31T19:08:05.296Z,0
2016-12-31T19:08:22.211Z,0
2016-12-31T19:08:39.129Z,0
2016-12-31T19:08:56.045Z,0
2016-12-31T19:09:12.955Z,0
2016-12-31T19:09:29.870Z,0
2016-12-31T19:09:46.794Z,0
2016-12-31T19:10:03.702Z,0
2016-12-31T19:10:20.622Z,0
2016-12-31T19:10:37.567Z,0
2016-12-31T19:10:54.468Z,0
2016-12-31T19:11:11.381Z,0
2016-12-31T19:11:28.433Z,0
2016-12-31T19:11:45.343Z,0
2016-12-31T19:12:02.278Z,0
2016-12-31T19:12:19.191Z,0
2016-12-31T19:12:36.117Z,0
2016-12-31T19:12:53.034Z,0
2016-12-31T19:13:09.958Z,0
2016-12-31T19:13:26.865Z,0
2016-12-31T19:13:43.785Z,0
2016-12-31T19:14:00.710Z,0
2016-12-31T19:14:17.639Z,0
2016-12-31T19:14:34.567Z,0
2016-12-31T19:14:51.483Z,0
2016-12-31T19:15:08.402Z,0
2016-12-31T19:15:25.314Z,0
2016-12-31T19:15:42.224Z,0
2016-12-31T19:15:59.145Z,0
2016-12-31T19:16:16.058Z,0
2016-12-31T19:16:32.988Z,0
2016-12-31T19:16:49.898Z,0
2016-12-31T19:17:06.807Z,0
2016-12-31T19:17:23.711Z,0
2016-12-31T19:17:40.622Z,0
2016-12-31T19:17:57.537Z,0
2016-12-31T19:18:14.451Z,0
2016-12-31T19:18:31.367Z,0
2016-12-31T19:18:48.276Z,0
2016-12-31T19:19:05.186Z,0
2016-12-31T19:19:22.101Z,0
2016-12-31T19:19:39.009Z,0
2016-12-31T19:19:55.953Z,0
2016-12-31T19:20:12.834Z,0
2016-12-31T19:20:29.753Z,0
2016-12-31T19:20:46.671Z,0
2016-12-31T19:21:03.588Z,0
2016-12-31T19:21:20.494Z,0
2016-12-31T19:21:37.468Z,0
2016-12-31T19:21:54.372Z,0
2016-12-31T19:22:11.292Z,0
2016-12-31T19:22:28.260Z,0
2016-12-31T19:22:45.171Z,0
2016-12-31T19:23:02.087Z,0
2016-12-31T19:23:18.994Z,0
2016-12-31T19:23:35.908Z,0
2016-12-31T19:23:52.812Z,0
2016-12-31T19:24:09.723Z,0
2016-12-31T19:24:26.665Z,0
2016-12-31T19:24:43.568Z,0
2016-12-31T19:25:00.498Z,0
2016-12-31T19:25:17.433Z,0
2016-12-31T19:25:34.344Z,0
2016-12-31T19:25:51.270Z,0
2016-12-31T19:26:08.183Z,0
2016-12-31T19:26:25.087Z,0
2016-12-31T19:26:42.055Z,0
2016-12-31T19:26:58.974Z,0
2016-12-31T19:27:15.896Z,0
2016-12-31T19:27:32.815Z,0
2016-12-31T19:27:49.724Z,0
2016-12-31T19:28:06.639Z,0
2016-12-31T19:28:23.552Z,0
2016-12-31T19:28:40.469Z,0
2016-12-31T19:28:57.380Z,0
2016-12-31T19:29:13.990Z,0
2016-12-31T19:29:30.900Z,0
2016-12-31T19:29:47.803Z,0
2016-12-31T19:30:04.724Z,0
2016-12-31T19:30:21.657Z,0
2016-12-31T19:30:38.572Z,0
2016-12-31T19:30:55.494Z,0
2016-12-31T19:31:12.463Z,0
2016-12-31T19:31:29.409Z,0
2016-12-31T19:31:46.319Z,0
2016-12-31T19:32:03.231Z,0
2016-12-31T19:32:20.147Z,0
2016-12-31T19:32:37.073Z,0
2016-12-31T19:32:53.990Z,0
2016-12-31T19:33:10.913Z,0
2016-12-31T19:33:27.826Z,0
2016-12-31T19:33:44.732Z,0
2016-12-31T19:34:01.640Z,0
2016-12-31T19:34:18.550Z,0
2016-12-31T19:34:35.519Z,0
2016-12-31T19:34:52.434Z,0
2016-12-31T19:35:09.342Z,0
2016-12-31T19:35:26.275Z,0
2016-12-31T19:35:43.191Z,0
2016-12-31T19:36:00.111Z,0
2016-12-31T19:36:17.016Z,0
2016-12-31T19:36:33.932Z,0
2016-12-31T19:36:50.963Z,0
2016-12-31T19:37:07.875Z,0
2016-12-31T19:37:24.792Z,0
2016-12-31T19:37:41.735Z,0
2016-12-31T19:37:58.660Z,0
2016-12-31T19:38:15.266Z,0
2016-12-31T19:38:32.195Z,0
2016-12-31T19:38:49.116Z,0
2016-12-31T19:39:06.033Z,0
2016-12-31T19:39:22.954Z,0
2016-12-31T19:39:39.870Z,0
2016-12-31T19:39:56.841Z,0
2016-12-31T19:40:13.775Z,0
2016-12-31T19:40:30.371Z,0
2016-12-31T19:40:47.286Z,0
2016-12-31T19:41:04.225Z,0
2016-12-31T19:41:21.115Z,0
2016-12-31T19:41:38.031Z,0
2016-12-31T19:41:54.951Z,0
2016-12-31T19:42:11.851Z,0
2016-12-31T19:42:28.775Z,0
2016-12-31T19:42:45.681Z,0
2016-12-31T19:43:02.592Z,0
2016-12-31T19:43:19.506Z,0
2016-12-31T19:43:36.411Z,0
2016-12-31T19:43:53.329Z,0
2016-12-31T19:44:10.244Z,0
2016-12-31T19:44:27.164Z,0
2016-12-31T19:44:44.066Z,0
2016-12-31T19:45:01.005Z,0
2016-12-31T19:45:18.064Z,0
2016-12-31T19:45:34.938Z,0
2016-12-31T19:45:51.854Z,0
2016-12-31T19:46:08.775Z,0
2016-12-31T19:46:25.676Z,0
2016-12-31T19:46:42.611Z,0
2016-12-31T19:46:59.513Z,0
2016-12-31T19:47:16.429Z,0
2016-12-31T19:47:33.356Z,0
2016-12-31T19:47:50.265Z,0
2016-12-31T19:48:07.175Z,0
2016-12-31T19:48:24.094Z,0
2016-12-31T19:48:41.010Z,0
2016-12-31T19:48:57.922Z,0
2016-12-31T19:49:15.051Z,0
2016-12-31T19:49:31.985Z,0
2016-12-31T19:49:48.902Z,0
2016-12-31T19:50:05.814Z,0
2016-12-31T19:50:22.734Z,0
2016-12-31T19:50:39.649Z,0
2016-12-31T19:50:56.572Z,0
2016-12-31T19:51:13.486Z,0
2016-12-31T19:51:30.398Z,0
2016-12-31T19:51:47.304Z,0
2016-12-31T19:52:04.226Z,0
2016-12-31T19:52:21.134Z,0
2016-12-31T19:52:38.065Z,0
2016-12-31T19:52:54.967Z,0
2016-12-31T19:53:11.877Z,0
2016-12-31T19:53:28.790Z,0
2016-12-31T19:53:45.708Z,0
2016-12-31T19:54:02.615Z,0
2016-12-31T19:54:19.594Z,0
2016-12-31T19:54:36.475Z,0
2016-12-31T19:54:53.401Z,0
2016-12-31T19:55:10.317Z,0
2016-12-31T19:55:27.226Z,0
2016-12-31T19:55:44.142Z,0
2016-12-31T19:56:01.065Z,0
2016-12-31T19:56:17.971Z,0
2016-12-31T19:56:34.883Z,0
2016-12-31T19:56:51.809Z,0
2016-12-31T19:57:08.726Z,0
2016-12-31T20:04:48.935Z,7
2016-12-31T20:05:05.877Z,6
2016-12-31T20:05:22.769Z,7
2016-12-31T20:05:39.666Z,6
2016-12-31T20:05:56.559Z,7
2016-12-31T20:06:13.455Z,28
2016-12-31T20:06:30.351Z,29
2016-12-31T20:06:47.246Z,28
2016-12-31T20:07:04.143Z,29
2016-12-31T20:07:21.048Z,28
2016-12-31T20:07:37.948Z,28
2016-12-31T20:07:54.844Z,28
2016-12-31T20:08:11.745Z,28
2016-12-31T20:08:28.639Z,28
2016-12-31T20:08:45.534Z,27
2016-12-31T20:09:02.444Z,27
2016-12-31T20:09:19.335Z,28
2016-12-31T20:09:36.232Z,27
2016-12-31T20:09:53.132Z,28
2016-12-31T20:10:10.027Z,28
2016-12-31T20:10:26.931Z,27
2016-12-31T20:10:43.831Z,28
2016-12-31T20:11:00.728Z,29
2016-12-31T20:11:17.625Z,28
2016-12-31T20:11:34.521Z,28
2016-12-31T20:11:51.428Z,25
2016-12-31T20:12:08.320Z,28
2016-12-31T20:12:25.219Z,28
2016-12-31T20:12:42.125Z,29
2016-12-31T20:12:59.028Z,27
2016-12-31T20:13:15.927Z,27
2016-12-31T20:13:32.835Z,27
2016-12-31T20:13:49.727Z,26
2016-12-31T20:14:06.621Z,27
2016-12-31T20:14:23.590Z,27
2016-12-31T20:14:40.487Z,26
2016-12-31T20:14:57.443Z,27
2016-12-31T20:15:14.432Z,27
2016-12-31T20:15:31.346Z,26
2016-12-31T20:15:48.301Z,25
2016-12-31T20:16:05.196Z,27
2016-12-31T20:16:22.099Z,5
2016-12-31T20:16:39.108Z,5
2016-12-31T20:16:56.017Z,5
2016-12-31T20:17:12.935Z,6
2016-12-31T20:17:30.645Z,5
2016-12-31T20:17:47.540Z,5
2016-12-31T20:18:04.443Z,6
2016-12-31T20:18:21.341Z,5
2016-12-31T20:18:38.236Z,5
2016-12-31T20:18:55.131Z,6
2016-12-31T20:19:12.030Z,6
2016-12-31T20:19:28.931Z,5
2016-12-31T20:19:45.832Z,6
2016-12-31T20:20:02.732Z,5
2016-12-31T20:20:19.627Z,5
2016-12-31T20:20:36.530Z,6
2016-12-31T20:20:53.427Z,5
2016-12-31T20:21:10.325Z,5
2016-12-31T20:21:27.231Z,5
2016-12-31T20:21:44.130Z,5
2016-12-31T20:22:01.028Z,5
2016-12-31T20:22:17.924Z,5
2016-12-31T20:22:34.825Z,6
2016-12-31T20:22:51.732Z,6
2016-12-31T20:23:08.630Z,6
2016-12-31T20:23:25.534Z,6
2016-12-31T20:23:42.451Z,5
2016-12-31T20:23:59.346Z,5
2016-12-31T20:24:16.250Z,5
2016-12-31T20:24:33.137Z,6
2016-12-31T20:24:50.033Z,6
2016-12-31T20:25:06.930Z,6
2016-12-31T20:25:23.824Z,5
2016-12-31T20:25:40.722Z,5